createdAt,value
2018-01-12T00:00:57.216Z,1017.64
2018-01-12T00:01:57.272Z,1017.68
2018-01-12T00:02:57.239Z,1017.66
2018-01-12T00:03:57.253Z,1017.64
2018-01-12T00:04:57.415Z,1017.62
2018-01-12T00:05:57.278Z,1017.61
2018-01-12T00:06:57.290Z,1017.67
2018-01-12T00:07:57.302Z,1017.66
2018-01-12T00:08:57.315Z,1017.67
2018-01-12T00:09:57.328Z,1017.68
2018-01-12T00:10:57.343Z,1017.69
2018-01-12T00:11:57.354Z,1017.72
2018-01-12T00:12:57.366Z,1017.70
2018-01-12T00:13:57.377Z,1017.65
2018-01-12T00:14:57.389Z,1017.64
2018-01-12T00:15:57.404Z,1017.65
2018-01-12T00:16:57.416Z,1017.66
2018-01-12T00:17:57.427Z,1017.63
2018-01-12T00:18:57.439Z,1017.60
2018-01-12T00:19:57.456Z,1017.60
2018-01-12T00:20:57.467Z,1017.59
2018-01-12T00:21:57.478Z,1017.59
2018-01-12T00:22:57.490Z,1017.58
2018-01-12T00:23:57.502Z,1017.56
2018-01-12T00:24:57.515Z,1017.55
2018-01-12T00:25:57.527Z,1017.57
2018-01-12T00:26:57.543Z,1017.58
2018-01-12T00:27:57.551Z,1017.63
2018-01-12T00:28:57.566Z,1017.56
2018-01-12T00:29:57.577Z,1017.58
2018-01-12T00:30:57.591Z,1017.60
2018-01-12T00:31:57.755Z,1017.60
2018-01-12T00:32:57.616Z,1017.62
2018-01-12T00:33:57.678Z,1017.64
2018-01-12T00:34:57.841Z,1017.63
2018-01-12T00:35:57.681Z,1017.63
2018-01-12T00:36:58.423Z,1017.66
2018-01-12T00:37:57.678Z,1017.64
2018-01-12T00:38:57.690Z,1017.62
2018-01-12T00:39:57.834Z,1017.67
2018-01-12T00:40:57.784Z,1017.62
2018-01-12T00:41:57.728Z,1017.63
2018-01-12T00:42:57.741Z,1017.64
2018-01-12T00:43:57.756Z,1017.68
2018-01-12T00:44:57.869Z,1017.65
2018-01-12T00:45:57.779Z,1017.61
2018-01-12T00:46:57.899Z,1017.68
2018-01-12T00:47:57.805Z,1017.66
2018-01-12T00:48:57.819Z,1017.67
2018-01-12T00:49:57.829Z,1017.66
2018-01-12T00:50:57.843Z,1017.67
2018-01-12T00:51:57.864Z,1017.72
2018-01-12T00:52:57.876Z,1017.70
2018-01-12T00:53:57.892Z,1017.78
2018-01-12T00:54:58.044Z,1017.78
2018-01-12T00:55:57.907Z,1017.78
2018-01-12T00:56:57.920Z,1017.78
2018-01-12T00:57:57.933Z,1017.81
2018-01-12T00:58:57.944Z,1017.83
2018-01-12T00:59:57.957Z,1017.85
2018-01-12T01:00:57.970Z,1017.86
2018-01-12T01:01:57.981Z,1017.82
2018-01-12T01:02:57.998Z,1017.86
2018-01-12T01:03:58.161Z,1017.86
2018-01-12T01:04:58.026Z,1017.88
2018-01-12T01:05:58.042Z,1017.89
2018-01-12T01:06:58.048Z,1017.86
2018-01-12T01:07:58.060Z,1017.89
2018-01-12T01:08:58.073Z,1017.86
2018-01-12T01:09:58.202Z,1017.88
2018-01-12T01:10:58.406Z,1017.90
2018-01-12T01:11:58.626Z,1017.85
2018-01-12T01:12:58.124Z,1017.85
2018-01-12T01:13:58.137Z,1017.82
2018-01-12T01:14:58.150Z,1017.79
2018-01-12T01:15:58.162Z,1017.77
2018-01-12T01:16:58.175Z,1017.73
2018-01-12T01:17:58.187Z,1017.75
2018-01-12T01:18:58.202Z,1017.72
2018-01-12T01:19:58.217Z,1017.75
2018-01-12T01:20:58.229Z,1017.77
2018-01-12T01:21:58.239Z,1017.75
2018-01-12T01:22:58.251Z,1017.75
2018-01-12T01:23:58.267Z,1017.76
2018-01-12T01:24:58.278Z,1017.72
2018-01-12T01:25:58.293Z,1017.73
2018-01-12T01:26:58.317Z,1017.77
2018-01-12T01:27:58.316Z,1017.82
2018-01-12T01:28:58.334Z,1017.76
2018-01-12T01:29:58.365Z,1017.82
2018-01-12T01:30:58.354Z,1017.82
2018-01-12T01:31:58.376Z,1017.83
2018-01-12T01:32:58.380Z,1017.85
2018-01-12T01:33:58.390Z,1017.87
2018-01-12T01:34:58.407Z,1017.85
2018-01-12T01:35:58.568Z,1017.86
2018-01-12T01:36:58.441Z,1017.92
2018-01-12T01:37:58.443Z,1017.91
2018-01-12T01:38:58.460Z,1017.94
2018-01-12T01:39:58.570Z,1017.94
2018-01-12T01:40:58.583Z,1017.92
2018-01-12T01:41:58.944Z,1017.94
2018-01-12T01:42:58.568Z,1017.95
2018-01-12T01:43:58.521Z,1017.94
2018-01-12T01:44:58.533Z,1017.99
2018-01-12T01:45:58.559Z,1017.99
2018-01-12T01:46:58.708Z,1018.00
2018-01-12T01:47:58.580Z,1018.01
2018-01-12T01:48:58.585Z,1018.05
2018-01-12T01:49:58.596Z,1018.05
2018-01-12T01:50:58.610Z,1018.07
2018-01-12T01:51:58.623Z,1018.07
2018-01-12T01:52:58.636Z,1018.08
2018-01-12T01:53:58.800Z,1018.13
2018-01-12T01:54:58.661Z,1018.13
2018-01-12T01:55:58.675Z,1018.17
2018-01-12T01:56:58.838Z,1018.17
2018-01-12T01:57:58.701Z,1018.17
2018-01-12T01:58:58.713Z,1018.21
2018-01-12T01:59:58.725Z,1018.23
2018-01-12T02:00:58.739Z,1018.21
2018-01-12T02:01:58.752Z,1018.25
2018-01-12T02:02:58.765Z,1018.27
2018-01-12T02:03:58.778Z,1018.27
2018-01-12T02:04:58.790Z,1018.28
2018-01-12T02:05:58.801Z,1018.29
2018-01-12T02:06:58.966Z,1018.29
2018-01-12T02:07:58.983Z,1018.29
2018-01-12T02:08:58.840Z,1018.28
2018-01-12T02:09:58.954Z,1018.30
2018-01-12T02:10:58.936Z,1018.31
2018-01-12T02:11:59.134Z,1018.31
2018-01-12T02:12:58.901Z,1018.31
2018-01-12T02:13:58.904Z,1018.27
2018-01-12T02:14:58.918Z,1018.31
2018-01-12T02:15:58.932Z,1018.35
2018-01-12T02:16:58.943Z,1018.36
2018-01-12T02:17:59.054Z,1018.39
2018-01-12T02:18:59.135Z,1018.44
2018-01-12T02:19:59.002Z,1018.41
2018-01-12T02:20:58.997Z,1018.43
2018-01-12T02:21:59.008Z,1018.43
2018-01-12T02:22:59.019Z,1018.48
2018-01-12T02:23:59.033Z,1018.48
2018-01-12T02:24:59.051Z,1018.47
2018-01-12T02:25:59.057Z,1018.48
2018-01-12T02:34:59.171Z,1018.50
2018-01-12T02:35:59.183Z,1018.44
2018-01-12T02:36:59.196Z,1018.45
2018-01-12T02:37:59.207Z,1018.44
2018-01-12T02:38:59.220Z,1018.42
2018-01-12T02:39:59.234Z,1018.46
2018-01-12T02:40:59.246Z,1018.38
2018-01-12T02:42:59.878Z,1018.42
2018-01-12T02:43:59.689Z,1018.42
2018-01-12T02:44:59.296Z,1018.43
2018-01-12T02:45:59.308Z,1018.41
2018-01-12T02:46:59.319Z,1018.39
2018-01-12T02:47:59.533Z,1018.43
2018-01-12T02:48:59.346Z,1018.39
2018-01-12T02:49:59.360Z,1018.43
2018-01-12T02:50:59.478Z,1018.41
2018-01-12T02:51:59.391Z,1018.47
2018-01-12T02:52:59.395Z,1018.45
2018-01-12T02:53:59.409Z,1018.39
2018-01-12T02:54:59.730Z,1018.45
2018-01-12T02:55:59.432Z,1018.47
2018-01-12T02:56:59.447Z,1018.44
2018-01-12T02:57:59.457Z,1018.47
2018-01-12T02:58:59.469Z,1018.43
2018-01-12T02:59:59.484Z,1018.49
2018-01-12T03:00:59.506Z,1018.47
2018-01-12T03:01:59.507Z,1018.45
2018-01-12T03:02:59.518Z,1018.47
2018-01-12T03:03:59.533Z,1018.47
2018-01-12T03:04:59.550Z,1018.49
2018-01-12T03:05:59.557Z,1018.54
2018-01-12T03:06:59.569Z,1018.56
2018-01-12T03:07:59.585Z,1018.58
2018-01-12T03:08:59.593Z,1018.57
2018-01-12T03:09:59.608Z,1018.58
2018-01-12T03:10:59.733Z,1018.63
2018-01-12T03:11:59.631Z,1018.61
2018-01-12T03:12:59.794Z,1018.62
2018-01-12T03:14:59.862Z,1018.63
2018-01-12T03:15:59.688Z,1018.60
2018-01-12T03:16:59.697Z,1018.58
2018-01-12T03:17:59.706Z,1018.59
2018-01-12T03:18:59.716Z,1018.55
2018-01-12T03:19:59.730Z,1018.59
2018-01-12T03:20:59.755Z,1018.60
2018-01-12T03:21:59.753Z,1018.61
2018-01-12T03:22:59.889Z,1018.68
2018-01-12T03:24:00.273Z,1018.67
2018-01-12T03:24:59.947Z,1018.67
2018-01-12T03:25:59.815Z,1018.69
2018-01-12T03:26:59.818Z,1018.67
2018-01-12T03:27:59.831Z,1018.65
2018-01-12T03:28:59.843Z,1018.66
2018-01-12T03:29:59.853Z,1018.69
2018-01-12T03:31:00.024Z,1018.68
2018-01-12T03:31:59.878Z,1018.67
2018-01-12T03:32:59.905Z,1018.71
2018-01-12T03:34:00.058Z,1018.69
2018-01-12T03:34:59.921Z,1018.69
2018-01-12T03:35:59.929Z,1018.70
2018-01-12T03:36:59.942Z,1018.69
2018-01-12T03:37:59.952Z,1018.69
2018-01-12T03:38:59.966Z,1018.72
2018-01-12T03:39:59.979Z,1018.71
2018-01-12T03:40:59.992Z,1018.68
2018-01-12T03:42:00.017Z,1018.69
2018-01-12T03:43:00.017Z,1018.67
2018-01-12T03:44:00.035Z,1018.68
2018-01-12T03:45:00.116Z,1018.70
2018-01-12T03:46:00.404Z,1018.67
2018-01-12T03:47:00.724Z,1018.69
2018-01-12T03:48:00.079Z,1018.67
2018-01-12T03:49:00.095Z,1018.70
2018-01-12T03:50:00.109Z,1018.69
2018-01-12T03:51:00.114Z,1018.67
2018-01-12T03:52:00.128Z,1018.69
2018-01-12T03:53:00.147Z,1018.68
2018-01-12T03:54:00.155Z,1018.70
2018-01-12T03:55:00.168Z,1018.69
2018-01-12T03:56:00.178Z,1018.70
2018-01-12T03:57:00.192Z,1018.71
2018-01-12T03:58:00.202Z,1018.68
2018-01-12T03:59:00.221Z,1018.66
2018-01-12T04:00:00.229Z,1018.71
2018-01-12T04:01:00.242Z,1018.67
2018-01-12T04:02:00.253Z,1018.69
2018-01-12T04:03:00.266Z,1018.66
2018-01-12T04:04:00.280Z,1018.71
2018-01-12T04:05:00.291Z,1018.71
2018-01-12T04:06:00.303Z,1018.70
2018-01-12T04:07:00.316Z,1018.70
2018-01-12T04:08:00.328Z,1018.74
2018-01-12T04:09:00.341Z,1018.73
2018-01-12T04:10:00.352Z,1018.76
2018-01-12T04:11:00.366Z,1018.77
2018-01-12T04:12:00.380Z,1018.76
2018-01-12T04:13:00.391Z,1018.79
2018-01-12T04:14:00.431Z,1018.81
2018-01-12T04:15:00.415Z,1018.82
2018-01-12T04:16:00.430Z,1018.85
2018-01-12T04:17:00.442Z,1018.84
2018-01-12T04:18:00.455Z,1018.78
2018-01-12T04:19:00.622Z,1018.79
2018-01-12T04:20:00.587Z,1018.80
2018-01-12T04:21:00.756Z,1018.78
2018-01-12T04:22:00.844Z,1018.81
2018-01-12T04:23:00.515Z,1018.78
2018-01-12T04:24:00.532Z,1018.78
2018-01-12T04:25:00.548Z,1018.80
2018-01-12T04:26:00.552Z,1018.78
2018-01-12T04:27:00.565Z,1018.80
2018-01-12T04:28:00.800Z,1018.77
2018-01-12T04:29:00.788Z,1018.76
2018-01-12T04:30:00.605Z,1018.76
2018-01-12T04:31:00.618Z,1018.79
2018-01-12T04:32:00.636Z,1018.79
2018-01-12T04:33:00.643Z,1018.78
2018-01-12T04:34:00.802Z,1018.81
2018-01-12T04:35:00.665Z,1018.79
2018-01-12T04:36:00.683Z,1018.76
2018-01-12T04:37:00.692Z,1018.79
2018-01-12T04:38:00.704Z,1018.80
2018-01-12T04:39:00.715Z,1018.79
2018-01-12T04:40:00.728Z,1018.83
2018-01-12T04:41:00.741Z,1018.82
2018-01-12T04:42:00.754Z,1018.85
2018-01-12T04:43:00.764Z,1018.84
2018-01-12T04:44:00.929Z,1018.81
2018-01-12T04:45:00.790Z,1018.84
2018-01-12T04:46:00.803Z,1018.83
2018-01-12T04:47:00.816Z,1018.85
2018-01-12T04:48:00.978Z,1018.81
2018-01-12T04:49:00.852Z,1018.85
2018-01-12T04:50:00.852Z,1018.83
2018-01-12T04:51:00.868Z,1018.84
2018-01-12T04:52:01.130Z,1018.84
2018-01-12T04:53:00.890Z,1018.82
2018-01-12T04:54:00.903Z,1018.85
2018-01-12T04:55:00.914Z,1018.84
2018-01-12T04:56:00.934Z,1018.85
2018-01-12T04:57:00.940Z,1018.81
2018-01-12T04:58:00.951Z,1018.87
2018-01-12T04:59:00.967Z,1018.80
2018-01-12T05:00:00.979Z,1018.82
2018-01-12T05:01:00.992Z,1018.82
2018-01-12T05:02:01.041Z,1018.81
2018-01-12T05:03:01.041Z,1018.82
2018-01-12T05:04:01.028Z,1018.81
2018-01-12T05:05:01.192Z,1018.83
2018-01-12T05:06:01.057Z,1018.83
2018-01-12T05:07:01.066Z,1018.86
2018-01-12T05:08:01.079Z,1018.86
2018-01-12T05:09:01.091Z,1018.84
2018-01-12T05:10:01.103Z,1018.86
2018-01-12T05:11:01.116Z,1018.86
2018-01-12T05:12:01.127Z,1018.83
2018-01-12T05:13:01.141Z,1018.81
2018-01-12T05:14:01.153Z,1018.86
2018-01-12T05:15:01.166Z,1018.83
2018-01-12T05:16:01.179Z,1018.83
2018-01-12T05:17:01.192Z,1018.83
2018-01-12T05:18:01.203Z,1018.83
2018-01-12T05:19:01.231Z,1018.82
2018-01-12T05:20:01.376Z,1018.83
2018-01-12T05:21:01.237Z,1018.86
2018-01-12T05:22:01.260Z,1018.86
2018-01-12T05:23:01.265Z,1018.87
2018-01-12T05:24:01.277Z,1018.89
2018-01-12T05:25:01.294Z,1018.91
2018-01-12T05:26:01.570Z,1018.88
2018-01-12T05:27:01.320Z,1018.91
2018-01-12T05:28:01.334Z,1018.90
2018-01-12T05:29:01.342Z,1018.90
2018-01-12T05:30:01.352Z,1018.91
2018-01-12T05:31:01.515Z,1018.89
2018-01-12T05:32:01.381Z,1018.91
2018-01-12T05:33:01.389Z,1018.91
2018-01-12T05:34:01.401Z,1018.90
2018-01-12T05:35:01.421Z,1018.88
2018-01-12T05:36:01.444Z,1018.91
2018-01-12T05:37:01.441Z,1018.89
2018-01-12T05:38:01.499Z,1018.89
2018-01-12T05:39:01.710Z,1018.90
2018-01-12T05:40:01.484Z,1018.92
2018-01-12T05:41:01.495Z,1018.92
2018-01-12T05:42:01.502Z,1018.94
2018-01-12T05:43:01.514Z,1018.93
2018-01-12T05:44:01.533Z,1018.95
2018-01-12T05:45:01.540Z,1018.95
2018-01-12T05:46:01.553Z,1018.93
2018-01-12T05:47:01.565Z,1018.94
2018-01-12T05:48:01.587Z,1018.96
2018-01-12T05:49:01.591Z,1018.93
2018-01-12T05:50:01.602Z,1018.96
2018-01-12T05:51:01.623Z,1018.93
2018-01-12T05:52:01.625Z,1018.93
2018-01-12T05:53:01.638Z,1018.98
2018-01-12T05:54:01.651Z,1018.92
2018-01-12T05:55:01.663Z,1018.94
2018-01-12T05:56:01.678Z,1018.91
2018-01-12T05:57:01.693Z,1018.94
2018-01-12T05:58:01.903Z,1018.89
2018-01-12T05:59:01.772Z,1018.92
2018-01-12T06:00:01.739Z,1018.88
2018-01-12T06:01:01.744Z,1018.88
2018-01-12T06:02:01.904Z,1018.90
2018-01-12T06:03:01.765Z,1018.86
2018-01-12T06:04:01.793Z,1018.87
2018-01-12T06:05:01.791Z,1018.89
2018-01-12T06:06:01.818Z,1018.89
2018-01-12T06:07:01.855Z,1018.90
2018-01-12T06:08:01.853Z,1018.87
2018-01-12T06:09:01.838Z,1018.90
2018-01-12T06:10:02.089Z,1018.89
2018-01-12T06:11:01.983Z,1018.86
2018-01-12T06:12:01.904Z,1018.90
2018-01-12T06:13:01.892Z,1018.87
2018-01-12T06:14:01.903Z,1018.89
2018-01-12T06:15:01.913Z,1018.91
2018-01-12T06:16:02.027Z,1018.92
2018-01-12T06:17:01.966Z,1018.94
2018-01-12T06:18:01.955Z,1018.96
2018-01-12T06:20:02.285Z,1018.99
2018-01-12T06:21:02.098Z,1019.02
2018-01-12T06:22:02.154Z,1019.02
2018-01-12T06:23:02.025Z,1019.01
2018-01-12T06:24:02.034Z,1019.04
2018-01-12T06:25:02.043Z,1019.05
2018-01-12T06:26:02.058Z,1019.05
2018-01-12T06:27:02.072Z,1019.04
2018-01-12T06:28:02.077Z,1019.08
2018-01-12T06:30:02.248Z,1019.12
2018-01-12T06:31:02.118Z,1019.11
2018-01-12T06:32:02.197Z,1019.14
2018-01-12T06:33:02.166Z,1019.15
2018-01-12T06:34:02.154Z,1019.17
2018-01-12T06:35:02.174Z,1019.22
2018-01-12T06:36:02.178Z,1019.20
2018-01-12T06:37:02.196Z,1019.22
2018-01-12T06:38:02.513Z,1019.25
2018-01-12T06:39:02.232Z,1019.26
2018-01-12T06:40:02.250Z,1019.23
2018-01-12T06:41:02.249Z,1019.29
2018-01-12T06:42:02.738Z,1019.27
2018-01-12T06:43:02.271Z,1019.29
2018-01-12T06:44:02.471Z,1019.31
2018-01-12T06:45:02.296Z,1019.31
2018-01-12T06:46:02.323Z,1019.33
2018-01-12T06:47:02.323Z,1019.28
2018-01-12T06:48:02.336Z,1019.27
2018-01-12T06:49:02.341Z,1019.31
2018-01-12T06:50:02.358Z,1019.30
2018-01-12T06:51:02.575Z,1019.31
2018-01-12T06:52:02.382Z,1019.34
2018-01-12T06:53:02.398Z,1019.33
2018-01-12T06:54:02.404Z,1019.32
2018-01-12T06:55:02.575Z,1019.36
2018-01-12T06:56:02.453Z,1019.36
2018-01-12T06:57:03.739Z,1019.34
2018-01-12T06:58:02.455Z,1019.36
2018-01-12T06:59:02.475Z,1019.37
2018-01-12T07:00:02.482Z,1019.35
2018-01-12T07:01:02.498Z,1019.35
2018-01-12T07:02:02.505Z,1019.33
2018-01-12T07:03:02.521Z,1019.33
2018-01-12T07:04:02.987Z,1019.34
2018-01-12T07:05:02.643Z,1019.33
2018-01-12T07:06:02.555Z,1019.35
2018-01-12T07:07:02.569Z,1019.30
2018-01-12T07:08:02.575Z,1019.34
2018-01-12T07:09:02.606Z,1019.32
2018-01-12T07:10:03.188Z,1019.32
2018-01-12T07:11:02.859Z,1019.30
2018-01-12T07:13:03.080Z,1019.31
2018-01-12T07:14:02.667Z,1019.36
2018-01-12T07:15:02.666Z,1019.35
2018-01-12T07:16:02.676Z,1019.37
2018-01-12T07:17:02.686Z,1019.35
2018-01-12T07:18:02.701Z,1019.41
2018-01-12T07:19:03.167Z,1019.37
2018-01-12T07:20:04.476Z,1019.41
2018-01-12T07:21:04.340Z,1019.40
2018-01-12T07:22:02.747Z,1019.41
2018-01-12T07:23:02.849Z,1019.43
2018-01-12T07:24:02.773Z,1019.37
2018-01-12T07:25:02.788Z,1019.39
2018-01-12T07:26:02.800Z,1019.39
2018-01-12T07:27:02.810Z,1019.36
2018-01-12T07:28:02.833Z,1019.41
2018-01-12T07:29:02.838Z,1019.40
2018-01-12T07:30:02.849Z,1019.44
2018-01-12T07:31:02.862Z,1019.41
2018-01-12T07:32:02.874Z,1019.46
2018-01-12T07:33:02.889Z,1019.45
2018-01-12T07:34:02.900Z,1019.46
2018-01-12T07:35:03.010Z,1019.47
2018-01-12T07:36:03.441Z,1019.48
2018-01-12T07:37:02.948Z,1019.49
2018-01-12T07:38:02.947Z,1019.53
2018-01-12T07:39:02.960Z,1019.50
2018-01-12T07:40:02.978Z,1019.53
2018-01-12T07:41:02.990Z,1019.58
2018-01-12T07:42:02.997Z,1019.59
2018-01-12T07:43:03.011Z,1019.62
2018-01-12T07:44:03.023Z,1019.66
2018-01-12T07:45:03.034Z,1019.66
2018-01-12T07:46:03.046Z,1019.63
2018-01-12T07:47:03.065Z,1019.66
2018-01-12T07:48:03.071Z,1019.67
2018-01-12T07:49:03.094Z,1019.67
2018-01-12T07:50:03.101Z,1019.67
2018-01-12T07:51:03.114Z,1019.68
2018-01-12T07:52:03.126Z,1019.75
2018-01-12T07:53:03.135Z,1019.71
2018-01-12T07:54:03.491Z,1019.76
2018-01-12T07:55:03.311Z,1019.78
2018-01-12T07:56:03.175Z,1019.79
2018-01-12T07:57:03.346Z,1019.79
2018-01-12T07:58:03.197Z,1019.83
2018-01-12T07:59:03.234Z,1019.85
2018-01-12T08:00:03.226Z,1019.84
2018-01-12T08:01:03.243Z,1019.88
2018-01-12T08:02:03.284Z,1019.92
2018-01-12T08:03:03.360Z,1019.93
2018-01-12T08:04:04.470Z,1019.93
2018-01-12T08:05:04.007Z,1019.96
2018-01-12T08:06:04.027Z,1019.95
2018-01-12T08:07:03.997Z,1020.00
2018-01-12T08:08:03.436Z,1020.03
2018-01-12T08:09:04.093Z,1020.01
2018-01-12T08:10:04.177Z,1020.03
2018-01-12T08:11:04.013Z,1020.05
2018-01-12T08:12:04.176Z,1020.02
2018-01-12T08:13:03.487Z,1020.03
2018-01-12T08:14:03.616Z,1020.07
2018-01-12T08:15:03.410Z,1020.05
2018-01-12T08:16:03.455Z,1020.09
2018-01-12T08:17:03.435Z,1020.08
2018-01-12T08:18:03.463Z,1020.06
2018-01-12T08:19:03.473Z,1020.07
2018-01-12T08:20:03.623Z,1020.12
2018-01-12T08:21:03.489Z,1020.13
2018-01-12T08:22:03.502Z,1020.14
2018-01-12T08:23:03.511Z,1020.16
2018-01-12T08:24:03.537Z,1020.19
2018-01-12T08:25:03.542Z,1020.23
2018-01-12T08:26:03.561Z,1020.26
2018-01-12T08:27:03.562Z,1020.27
2018-01-12T08:28:03.573Z,1020.28
2018-01-12T08:29:03.591Z,1020.30
2018-01-12T08:30:03.596Z,1020.33
2018-01-12T08:31:06.248Z,1020.37
2018-01-12T08:32:04.506Z,1020.32
2018-01-12T08:33:04.140Z,1020.35
2018-01-12T08:34:04.110Z,1020.37
2018-01-12T08:35:03.663Z,1020.39
2018-01-12T08:36:03.675Z,1020.43
2018-01-12T08:37:03.691Z,1020.44
2018-01-12T08:38:03.705Z,1020.46
2018-01-12T08:39:03.766Z,1020.45
2018-01-12T08:40:03.829Z,1020.45
2018-01-12T08:41:03.738Z,1020.47
2018-01-12T08:42:03.782Z,1020.51
2018-01-12T08:43:03.763Z,1020.50
2018-01-12T08:44:03.809Z,1020.53
2018-01-12T08:45:03.801Z,1020.54
2018-01-12T08:46:03.823Z,1020.57
2018-01-12T08:47:04.055Z,1020.58
2018-01-12T08:48:03.826Z,1020.59
2018-01-12T08:49:03.837Z,1020.58
2018-01-12T08:50:03.874Z,1020.58
2018-01-12T08:53:03.953Z,1020.60
2018-01-12T08:54:04.771Z,1020.59
2018-01-12T08:55:04.228Z,1020.60
2018-01-12T08:56:04.289Z,1020.63
2018-01-12T08:57:03.959Z,1020.62
2018-01-12T08:58:03.974Z,1020.66
2018-01-12T08:59:03.966Z,1020.66
2018-01-12T09:00:03.976Z,1020.71
2018-01-12T09:01:03.984Z,1020.70
2018-01-12T09:03:04.011Z,1020.73
2018-01-12T09:04:04.025Z,1020.73
2018-01-12T09:05:04.051Z,1020.72
2018-01-12T09:06:04.045Z,1020.74
2018-01-12T09:07:04.062Z,1020.75
2018-01-12T09:08:04.086Z,1020.77
2018-01-12T09:09:04.121Z,1020.72
2018-01-12T09:10:04.099Z,1020.71
2018-01-12T09:11:04.111Z,1020.72
2018-01-12T09:12:04.122Z,1020.77
2018-01-12T09:13:04.143Z,1020.76
2018-01-12T09:16:05.008Z,1020.78
2018-01-12T09:17:04.199Z,1020.74
2018-01-12T09:18:05.467Z,1020.79
2018-01-12T09:19:04.210Z,1020.79
2018-01-12T09:20:04.225Z,1020.78
2018-01-12T09:21:04.237Z,1020.78
2018-01-12T09:22:04.254Z,1020.81
2018-01-12T09:23:04.260Z,1020.80
2018-01-12T09:24:04.596Z,1020.81
2018-01-12T09:25:04.755Z,1020.81
2018-01-12T09:26:04.345Z,1020.81
2018-01-12T09:27:04.313Z,1020.83
2018-01-12T09:28:04.363Z,1020.80
2018-01-12T09:29:04.342Z,1020.79
2018-01-12T09:30:04.408Z,1020.78
2018-01-12T09:31:04.374Z,1020.81
2018-01-12T09:32:04.385Z,1020.83
2018-01-12T09:33:04.387Z,1020.86
2018-01-12T09:34:04.401Z,1020.86
2018-01-12T09:35:04.413Z,1020.91
2018-01-12T09:36:04.426Z,1020.92
2018-01-12T09:37:05.468Z,1020.92
2018-01-12T09:38:04.888Z,1020.92
2018-01-12T09:39:04.581Z,1020.93
2018-01-12T09:40:04.476Z,1020.97
2018-01-12T09:41:04.510Z,1020.94
2018-01-12T09:42:04.517Z,1020.94
2018-01-12T09:43:04.515Z,1020.96
2018-01-12T09:44:04.610Z,1020.97
2018-01-12T09:45:04.543Z,1020.97
2018-01-12T09:46:04.553Z,1020.97
2018-01-12T09:48:04.828Z,1020.97
2018-01-12T09:49:05.216Z,1021.00
2018-01-12T09:50:04.603Z,1021.00
2018-01-12T09:51:04.617Z,1021.01
2018-01-12T09:52:04.645Z,1021.02
2018-01-12T09:53:04.688Z,1021.06
2018-01-12T09:54:04.676Z,1021.04
2018-01-12T09:55:04.685Z,1021.10
2018-01-12T09:56:04.722Z,1021.07
2018-01-12T09:57:04.697Z,1021.07
2018-01-12T09:58:04.712Z,1021.11
2018-01-12T09:59:04.717Z,1021.09
2018-01-12T10:00:04.765Z,1021.08
2018-01-12T10:01:04.758Z,1021.13
2018-01-12T10:02:04.758Z,1021.13
2018-01-12T10:03:04.839Z,1021.14
2018-01-12T10:04:05.195Z,1021.13
2018-01-12T10:05:04.807Z,1021.13
2018-01-12T10:06:04.808Z,1021.16
2018-01-12T10:07:04.822Z,1021.18
2018-01-12T10:08:04.882Z,1021.13
2018-01-12T10:09:04.880Z,1021.13
2018-01-12T10:10:04.857Z,1021.16
2018-01-12T10:11:04.926Z,1021.13
2018-01-12T10:12:04.886Z,1021.15
2018-01-12T10:13:04.921Z,1021.12
2018-01-12T10:14:04.910Z,1021.10
2018-01-12T10:15:04.924Z,1021.11
2018-01-12T10:16:04.933Z,1021.13
2018-01-12T10:17:04.949Z,1021.08
2018-01-12T10:18:05.108Z,1021.17
2018-01-12T10:19:04.970Z,1021.13
2018-01-12T10:20:04.985Z,1021.16
2018-01-12T10:21:04.999Z,1021.15
2018-01-12T10:22:05.160Z,1021.15
2018-01-12T10:23:05.035Z,1021.12
2018-01-12T10:24:05.035Z,1021.14
2018-01-12T10:25:05.055Z,1021.11
2018-01-12T10:26:05.068Z,1021.14
2018-01-12T10:27:06.493Z,1021.12
2018-01-12T10:28:06.311Z,1021.14
2018-01-12T10:29:05.108Z,1021.12
2018-01-12T10:30:05.109Z,1021.13
2018-01-12T10:31:05.129Z,1021.14
2018-01-12T10:32:05.137Z,1021.14
2018-01-12T10:33:05.150Z,1021.15
2018-01-12T10:34:05.161Z,1021.20
2018-01-12T10:35:05.198Z,1021.18
2018-01-12T10:36:05.338Z,1021.18
2018-01-12T10:37:05.207Z,1021.16
2018-01-12T10:38:05.219Z,1021.13
2018-01-12T10:39:05.228Z,1021.12
2018-01-12T10:40:05.256Z,1021.14
2018-01-12T10:41:05.255Z,1021.14
2018-01-12T10:42:05.263Z,1021.14
2018-01-12T10:43:05.291Z,1021.14
2018-01-12T10:44:05.294Z,1021.12
2018-01-12T10:45:05.302Z,1021.12
2018-01-12T10:46:05.314Z,1021.15
2018-01-12T10:47:05.330Z,1021.12
2018-01-12T10:48:05.342Z,1021.08
2018-01-12T10:49:05.409Z,1021.08
2018-01-12T10:50:06.923Z,1021.07
2018-01-12T10:52:05.392Z,1021.12
2018-01-12T10:53:05.415Z,1021.09
2018-01-12T10:54:05.416Z,1021.06
2018-01-12T10:55:05.442Z,1021.11
2018-01-12T10:56:05.445Z,1021.11
2018-01-12T10:57:05.612Z,1021.12
2018-01-12T10:58:05.484Z,1021.15
2018-01-12T10:59:05.577Z,1021.13
2018-01-12T11:00:05.499Z,1021.11
2018-01-12T11:01:05.522Z,1021.06
2018-01-12T11:02:05.533Z,1021.11
2018-01-12T11:03:05.546Z,1021.12
2018-01-12T11:05:05.867Z,1021.11
2018-01-12T11:06:05.581Z,1021.13
2018-01-12T11:07:05.583Z,1021.15
2018-01-12T11:08:05.606Z,1021.09
2018-01-12T11:09:05.609Z,1021.08
2018-01-12T11:10:05.619Z,1021.08
2018-01-12T11:11:05.699Z,1021.10
2018-01-12T11:12:05.707Z,1021.11
2018-01-12T11:13:06.496Z,1021.11
2018-01-12T11:14:05.839Z,1021.10
2018-01-12T11:15:06.013Z,1021.08
2018-01-12T11:16:05.712Z,1021.11
2018-01-12T11:17:05.727Z,1021.10
2018-01-12T11:18:05.722Z,1021.12
2018-01-12T11:19:05.735Z,1021.08
2018-01-12T11:20:05.748Z,1021.14
2018-01-12T11:21:05.763Z,1021.09
2018-01-12T11:22:05.784Z,1021.02
2018-01-12T11:23:05.787Z,1021.05
2018-01-12T11:24:05.797Z,1021.06
2018-01-12T11:25:06.197Z,1021.07
2018-01-12T11:26:05.823Z,1021.06
2018-01-12T11:27:05.836Z,1021.03
2018-01-12T11:28:05.848Z,1021.02
2018-01-12T11:29:05.864Z,1021.03
2018-01-12T11:30:05.876Z,1021.00
2018-01-12T11:31:06.480Z,1021.01
2018-01-12T11:32:05.907Z,1021.00
2018-01-12T11:33:05.915Z,1020.99
2018-01-12T11:34:05.927Z,1020.98
2018-01-12T11:35:05.937Z,1020.99
2018-01-12T11:36:06.105Z,1020.93
2018-01-12T11:37:05.963Z,1020.98
2018-01-12T11:38:05.984Z,1020.96
2018-01-12T11:39:06.300Z,1020.95
2018-01-12T11:40:06.010Z,1020.93
2018-01-12T11:41:06.018Z,1020.91
2018-01-12T11:42:06.034Z,1020.93
2018-01-12T11:43:06.253Z,1020.87
2018-01-12T11:44:06.059Z,1020.89
2018-01-12T11:45:06.067Z,1020.88
2018-01-12T11:46:06.234Z,1020.92
2018-01-12T11:47:06.122Z,1020.90
2018-01-12T11:48:06.122Z,1020.87
2018-01-12T11:49:06.134Z,1020.90
2018-01-12T11:50:06.134Z,1020.88
2018-01-12T11:51:06.147Z,1020.86
2018-01-12T11:52:06.175Z,1020.91
2018-01-12T11:53:06.184Z,1020.90
2018-01-12T11:54:06.190Z,1020.88
2018-01-12T11:55:06.205Z,1020.92
2018-01-12T11:56:06.243Z,1020.84
2018-01-12T11:57:06.589Z,1020.85
2018-01-12T11:58:06.240Z,1020.87
2018-01-12T11:59:06.250Z,1020.84
2018-01-12T12:00:06.278Z,1020.87
2018-01-12T12:01:06.280Z,1020.86
2018-01-12T12:02:06.291Z,1020.85
2018-01-12T12:03:06.301Z,1020.86
2018-01-12T12:04:06.318Z,1020.87
2018-01-12T12:05:06.362Z,1020.86
2018-01-12T12:06:06.362Z,1020.85
2018-01-12T12:07:06.353Z,1020.87
2018-01-12T12:08:06.446Z,1020.88
2018-01-12T12:09:06.470Z,1020.87
2018-01-12T12:10:06.441Z,1020.86
2018-01-12T12:11:06.584Z,1020.89
2018-01-12T12:12:06.428Z,1020.89
2018-01-12T12:13:06.437Z,1020.89
2018-01-12T12:14:06.445Z,1020.89
2018-01-12T12:15:06.459Z,1020.87
2018-01-12T12:16:06.498Z,1020.90
2018-01-12T12:17:06.486Z,1020.89
2018-01-12T12:18:06.543Z,1020.87
2018-01-12T12:19:06.515Z,1020.84
2018-01-12T12:20:07.265Z,1020.84
2018-01-12T12:21:06.539Z,1020.84
2018-01-12T12:22:06.561Z,1020.83
2018-01-12T12:23:06.563Z,1020.81
2018-01-12T12:24:07.068Z,1020.83
2018-01-12T12:25:06.592Z,1020.83
2018-01-12T12:26:06.606Z,1020.84
2018-01-12T12:27:06.614Z,1020.82